Time;durP1;ratioP1;P1;durP2;ratioP2;P2;SDS_P1;SDS_P2;PMS_P1;PMS_P2;Temp;Humidity;BMP_temperature;BMP_pressure;BME280_temperature;BME280_humidity;BME280_pressure;Samples;Min_cycle;Max_cycle;Signal;HPM_P1;HPM_P2
2021/08/06 00:00:27;;;;;;;21.67;11.13;;;14.70;99.90;;;;;;3539737;40;20045;-60
2021/08/06 00:02:52;;;;;;;14.10;10.48;;;14.70;99.90;;;;;;3540812;40;20031;-60
2021/08/06 00:05:18;;;;;;;14.70;9.90;;;;;;;;;;3540769;40;20034;-60
2021/08/06 00:07:44;;;;;;;16.95;11.05;;;14.80;99.90;;;;;;3548113;40;20517;-60
2021/08/06 00:10:09;;;;;;;14.63;11.43;;;14.80;99.90;;;;;;3540756;40;20060;-60
2021/08/06 00:12:35;;;;;;;15.35;10.63;;;14.80;99.90;;;;;;3541047;40;20102;-60
2021/08/06 00:15:00;;;;;;;18.10;10.70;;;14.70;99.90;;;;;;3540846;40;20049;-60
2021/08/06 00:17:26;;;;;;;14.77;10.35;;;14.70;99.90;;;;;;3541148;40;20430;-60
2021/08/06 00:19:51;;;;;;;13.65;10.20;;;14.60;99.90;;;;;;3540371;40;20800;-60
2021/08/06 00:22:17;;;;;;;14.95;11.10;;;14.70;99.90;;;;;;3547305;40;20144;-60
2021/08/06 00:24:42;;;;;;;12.93;10.82;;;14.70;99.90;;;;;;3540332;40;20046;-60
2021/08/06 00:27:08;;;;;;;12.98;10.55;;;14.60;99.90;;;;;;3540269;40;20041;-60
2021/08/06 00:29:34;;;;;;;13.55;9.77;;;;;;;;;;3548168;40;20030;-60
2021/08/06 00:32:00;;;;;;;16.17;10.15;;;14.80;99.90;;;;;;3547400;40;20376;-60
2021/08/06 00:34:26;;;;;;;18.95;10.23;;;14.80;99.90;;;;;;3547307;40;20034;-60
2021/08/06 00:36:52;;;;;;;13.63;9.93;;;14.60;99.90;;;;;;3540644;40;20046;-60
2021/08/06 00:39:18;;;;;;;11.80;10.10;;;14.60;99.90;;;;;;3539786;40;20537;-60
2021/08/06 00:41:45;;;;;;;20.50;11.52;;;14.60;99.90;;;;;;3548082;40;20057;-60
2021/08/06 00:44:10;;;;;;;17.58;10.77;;;14.50;99.90;;;;;;3548277;40;20066;-60
2021/08/06 00:46:36;;;;;;;18.30;11.60;;;14.50;99.90;;;;;;3547506;40;20034;-60
2021/08/06 00:49:02;;;;;;;16.00;10.57;;;14.50;99.90;;;;;;3547396;40;20046;-60
2021/08/06 00:51:31;;;;;;;18.33;10.77;;;;;;;;;;3546644;40;20037;-60
2021/08/06 00:53:58;;;;;;;12.18;9.57;;;14.60;99.90;;;;;;3547383;40;20435;-60
2021/08/06 00:56:34;;;;;;;11.88;9.65;;;14.70;99.90;;;;;;3545925;40;20140;-60
2021/08/06 00:59:03;;;;;;;15.57;10.27;;;14.70;99.90;;;;;;3540637;40;20042;-60
2021/08/06 01:01:29;;;;;;;16.42;10.70;;;14.60;99.90;;;;;;3540336;40;20035;-60
2021/08/06 01:03:55;;;;;;;17.80;12.50;;;14.60;99.90;;;;;;3547341;40;20050;-60
2021/08/06 01:06:22;;;;;;;21.30;12.50;;;14.70;99.90;;;;;;3547873;40;20050;-60
2021/08/06 01:08:49;;;;;;;13.25;10.85;;;14.40;99.90;;;;;;3547580;40;20022;-60
2021/08/06 01:11:17;;;;;;;15.32;12.15;;;;;;;;;;3539348;40;20045;-60
2021/08/06 01:13:43;;;;;;;15.45;12.25;;;14.50;99.90;;;;;;3547947;40;20106;-60
2021/08/06 01:16:09;;;;;;;19.90;12.77;;;14.50;99.90;;;;;;3547251;40;20536;-60
2021/08/06 01:18:39;;;;;;;24.60;13.88;;;;;;;;;;3547344;40;20191;-60
2021/08/06 01:21:09;;;;;;;16.83;13.20;;;17.00;99.90;;;;;;3547205;40;20026;-60
2021/08/06 01:23:36;;;;;;;21.98;14.52;;;;;;;;;;3547744;40;20285;-60
2021/08/06 01:26:02;;;;;;;22.92;14.65;;;14.70;99.90;;;;;;3547027;40;20046;-60
2021/08/06 01:28:39;;;;;;;21.98;15.18;;;14.70;99.90;;;;;;3546499;40;20505;-60
2021/08/06 01:31:05;;;;;;;20.40;15.05;;;14.60;99.90;;;;;;3534734;40;20037;-60
2021/08/06 01:33:36;;;;;;;17.77;13.23;;;14.60;99.90;;;;;;3546570;40;20644;-60
2021/08/06 01:36:02;;;;;;;23.48;14.60;;;14.60;99.90;;;;;;3547540;40;20046;-60
2021/08/06 01:38:30;;;;;;;20.60;14.10;;;14.50;99.90;;;;;;3547511;40;20050;-60
2021/08/06 01:40:55;;;;;;;15.57;12.27;;;14.50;99.90;;;;;;3546621;40;20042;-60
2021/08/06 01:43:23;;;;;;;14.65;11.00;;;14.50;99.90;;;;;;3547324;40;20816;-60
2021/08/06 01:45:49;;;;;;;12.90;10.70;;;14.40;99.90;;;;;;3546927;40;20045;-60
2021/08/06 01:48:15;;;;;;;11.98;9.73;;;14.40;99.90;;;;;;3539295;40;20603;-60
2021/08/06 01:50:40;;;;;;;14.40;9.77;;;14.40;99.90;;;;;;3546957;40;20093;-60
2021/08/06 01:53:11;;;;;;;16.27;9.48;;;;;;;;;;3547581;40;20030;-60
2021/08/06 01:55:43;;;;;;;17.50;9.35;;;;;;;;;;3539182;40;20026;-60
2021/08/06 01:58:10;;;;;;;12.05;8.93;;;;;;;;;;3537203;40;20442;-60
2021/08/06 02:00:40;;;;;;;13.80;8.80;;;14.40;99.90;;;;;;3547319;40;20591;-60
2021/08/06 02:03:07;;;;;;;14.75;8.85;;;;;;;;;;3534350;40;20062;-60
2021/08/06 02:05:33;;;;;;;23.55;14.27;;;14.40;99.90;;;;;;3545545;40;20034;-60
2021/08/06 02:08:07;;;;;;;25.02;17.30;;;14.40;99.90;;;;;;3546837;40;20042;-60
2021/08/06 02:10:32;;;;;;;28.13;17.85;;;14.50;99.90;;;;;;3534239;40;20030;-60
2021/08/06 02:13:02;;;;;;;24.88;17.90;;;14.50;99.90;;;;;;3539304;40;20090;-60
2021/08/06 02:15:29;;;;;;;28.25;19.20;;;;;;;;;;3547420;40;20077;-60
2021/08/06 02:17:55;;;;;;;28.15;19.55;;;;;;;;;;3539912;40;20668;-60
2021/08/06 02:20:39;;;;;;;25.65;19.38;;;14.50;99.90;;;;;;3545401;40;20049;-60
2021/08/06 02:23:05;;;;;;;29.00;19.42;;;14.50;99.90;;;;;;3546444;40;20038;-60
2021/08/06 02:25:31;;;;;;;22.73;17.80;;;14.50;99.90;;;;;;3547282;40;20148;-60
2021/08/06 02:27:59;;;;;;;30.00;17.95;;;;;;;;;;3546782;40;20414;-60
2021/08/06 02:30:31;;;;;;;27.55;18.85;;;14.50;99.90;;;;;;3538733;40;20034;-60
2021/08/06 02:32:57;;;;;;;26.30;17.45;;;14.50;99.90;;;;;;3539703;40;20054;-60
2021/08/06 02:35:23;;;;;;;27.05;18.00;;;;;;;;;;3546194;40;20037;-60
2021/08/06 02:37:50;;;;;;;26.48;19.02;;;14.50;99.90;;;;;;3546766;40;20042;-60
2021/08/06 02:40:15;;;;;;;27.42;18.98;;;15.10;99.90;;;;;;3539559;40;20025;-60
2021/08/06 02:42:41;;;;;;;24.90;18.15;;;14.40;99.90;;;;;;3546768;40;20109;-60
2021/08/06 02:45:07;;;;;;;25.60;19.27;;;14.50;99.90;;;;;;3547081;40;20050;-60
2021/08/06 02:47:32;;;;;;;29.33;20.70;;;14.50;99.90;;;;;;3539316;40;20077;-60
2021/08/06 02:49:58;;;;;;;33.30;21.60;;;14.60;99.90;;;;;;3540340;40;20030;-60
2021/08/06 02:52:23;;;;;;;31.67;21.58;;;14.50;99.90;;;;;;3540333;40;20042;-60
2021/08/06 02:54:51;;;;;;;36.35;22.45;;;14.50;99.90;;;;;;3547514;40;20069;-60
2021/08/06 02:57:17;;;;;;;31.00;22.40;;;14.60;99.90;;;;;;3545823;40;20086;-60
2021/08/06 02:59:42;;;;;;;31.63;21.15;;;14.60;99.90;;;;;;3539275;40;20030;-60
2021/08/06 03:02:08;;;;;;;35.53;22.75;;;14.70;99.90;;;;;;3539597;40;20035;-60
2021/08/06 03:04:35;;;;;;;38.50;24.10;;;14.70;99.90;;;;;;3548500;40;20804;-60
2021/08/06 03:07:05;;;;;;;36.60;23.95;;;14.70;99.90;;;;;;3549385;40;20050;-60
2021/08/06 03:09:31;;;;;;;32.50;22.30;;;14.70;99.90;;;;;;3548948;40;20641;-60
2021/08/06 03:11:57;;;;;;;25.25;17.00;;;14.70;99.90;;;;;;3539740;40;20157;-60
2021/08/06 03:14:27;;;;;;;18.58;11.95;;;14.60;99.90;;;;;;3548407;40;20438;-60
2021/08/06 03:16:53;;;;;;;15.45;10.65;;;14.50;99.90;;;;;;3541767;40;20046;-60
2021/08/06 03:19:19;;;;;;;17.48;11.75;;;;;;;;;;3540270;40;20136;-60
2021/08/06 03:21:45;;;;;;;29.67;19.08;;;14.40;99.90;;;;;;3548815;40;20404;-60
2021/08/06 03:24:10;;;;;;;33.72;20.38;;;14.40;99.90;;;;;;3548739;40;20057;-60
2021/08/06 03:26:37;;;;;;;32.92;23.00;;;14.30;99.90;;;;;;3540510;40;20896;-60
2021/08/06 03:29:04;;;;;;;36.40;25.75;;;;;;;;;;3540454;40;20042;-60
2021/08/06 03:31:29;;;;;;;41.28;28.60;;;14.40;99.90;;;;;;3542544;40;20530;-60
2021/08/06 03:33:56;;;;;;;48.22;30.88;;;14.40;99.90;;;;;;3541045;40;20050;-60
2021/08/06 03:36:22;;;;;;;47.22;31.42;;;14.40;99.90;;;;;;3539601;40;20250;-60
2021/08/06 03:38:51;;;;;;;46.78;30.05;;;14.30;99.90;;;;;;3540259;40;20038;-60
2021/08/06 03:41:16;;;;;;;52.60;30.98;;;14.20;99.90;;;;;;3547619;40;20094;-60
2021/08/06 03:43:42;;;;;;;32.20;20.50;;;14.30;99.90;;;;;;3541646;40;20063;-60
2021/08/06 03:46:10;;;;;;;20.52;15.27;;;14.30;99.90;;;;;;3540421;40;20023;-60
2021/08/06 03:48:37;;;;;;;23.48;13.65;;;14.20;99.90;;;;;;3547946;40;20027;-60
2021/08/06 03:51:02;;;;;;;19.65;12.75;;;14.20;99.90;;;;;;3548566;40;20089;-60
2021/08/06 03:53:28;;;;;;;20.08;13.18;;;14.00;99.90;;;;;;3547880;40;20659;-60
2021/08/06 03:55:54;;;;;;;21.55;14.25;;;14.00;99.90;;;;;;3540343;40;20026;-61
2021/08/06 03:58:23;;;;;;;22.75;14.95;;;14.00;99.90;;;;;;3540998;40;20050;-60
2021/08/06 04:00:49;;;;;;;24.38;17.55;;;14.00;99.90;;;;;;3547740;40;20065;-60
2021/08/06 04:03:15;;;;;;;29.23;16.45;;;14.00;99.90;;;;;;3548098;40;20052;-60
2021/08/06 04:05:41;;;;;;;27.08;17.48;;;14.00;99.90;;;;;;3536266;40;20050;-60
2021/08/06 04:08:10;;;;;;;33.15;22.15;;;13.70;99.90;;;;;;3547004;40;20446;-60
2021/08/06 04:10:39;;;;;;;38.20;23.05;;;14.10;99.90;;;;;;3532192;40;20042;-60
2021/08/06 04:13:06;;;;;;;34.35;19.80;;;14.10;99.90;;;;;;3538902;40;20161;-60
2021/08/06 04:15:32;;;;;;;26.65;18.40;;;14.20;99.90;;;;;;3539815;40;20454;-60
2021/08/06 04:17:57;;;;;;;24.70;16.55;;;14.30;99.90;;;;;;3540490;40;20042;-60
2021/08/06 04:20:23;;;;;;;20.23;14.60;;;14.30;99.90;;;;;;3541199;40;20308;-60
2021/08/06 04:22:49;;;;;;;25.40;14.88;;;14.20;99.90;;;;;;3539430;40;20413;-60
2021/08/06 04:25:15;;;;;;;25.08;16.88;;;14.20;99.90;;;;;;3539122;40;20087;-68
2021/08/06 04:27:41;;;;;;;35.10;20.98;;;14.20;99.90;;;;;;3548182;40;20031;-68
2021/08/06 04:30:07;;;;;;;39.30;23.45;;;14.30;99.90;;;;;;3539105;40;20027;-68
2021/08/06 04:32:32;;;;;;;40.97;25.05;;;14.30;99.90;;;;;;3539918;40;20523;-68
2021/08/06 04:34:58;;;;;;;34.95;22.85;;;14.40;99.90;;;;;;3539457;40;20058;-68
2021/08/06 04:37:23;;;;;;;29.55;19.17;;;14.40;99.90;;;;;;3540940;40;20050;-67
2021/08/06 04:39:49;;;;;;;24.98;15.25;;;;;;;;;;3547357;40;20720;-68
2021/08/06 04:42:15;;;;;;;27.45;17.75;;;14.40;99.90;;;;;;3538850;40;20052;-67
2021/08/06 04:44:41;;;;;;;32.10;21.33;;;14.50;99.90;;;;;;3540940;40;20042;-68
2021/08/06 04:47:06;;;;;;;33.60;22.50;;;14.50;99.90;;;;;;3547526;40;20132;-67
2021/08/06 04:49:35;;;;;;;33.08;17.83;;;14.60;99.90;;;;;;3548174;40;20061;-68
2021/08/06 04:52:01;;;;;;;26.70;18.35;;;14.60;99.90;;;;;;3547892;40;20034;-68
2021/08/06 04:54:27;;;;;;;29.08;18.38;;;14.60;99.90;;;;;;3547624;40;20085;-67
2021/08/06 04:56:53;;;;;;;28.33;16.52;;;14.60;99.90;;;;;;3548133;40;20030;-68
2021/08/06 04:59:18;;;;;;;26.52;17.52;;;14.70;99.90;;;;;;3539509;40;20347;-67
2021/08/06 05:01:44;;;;;;;20.42;15.02;;;14.70;99.90;;;;;;3539868;40;20057;-68
2021/08/06 05:04:10;;;;;;;23.48;11.65;;;14.70;99.90;;;;;;3548490;40;20042;-67
2021/08/06 05:06:36;;;;;;;21.17;12.10;;;;;;;;;;3546885;40;20050;-67
2021/08/06 05:09:01;;;;;;;12.60;10.35;;;14.60;99.90;;;;;;3548092;40;20101;-67
2021/08/06 05:11:28;;;;;;;17.73;10.30;;;14.50;99.90;;;;;;3547029;40;20045;-67
2021/08/06 05:13:53;;;;;;;19.23;11.10;;;14.60;99.90;;;;;;3538388;40;20062;-67
2021/08/06 05:16:19;;;;;;;30.02;19.60;;;14.60;99.90;;;;;;3547746;40;20030;-60
2021/08/06 05:18:45;;;;;;;30.92;20.60;;;14.90;99.90;;;;;;3546759;40;20053;-60
2021/08/06 05:21:11;;;;;;;40.95;26.20;;;14.90;99.90;;;;;;3547562;40;20049;-60
2021/08/06 05:23:39;;;;;;;52.22;30.05;;;15.00;99.90;;;;;;3545500;40;20030;-60
2021/08/06 05:26:05;;;;;;;49.15;31.58;;;16.10;99.90;;;;;;3546368;40;20417;-60
2021/08/06 05:28:31;;;;;;;47.92;29.23;;;15.10;99.90;;;;;;3540834;40;20042;-60
2021/08/06 05:30:56;;;;;;;50.03;30.05;;;15.20;99.90;;;;;;3545896;40;20128;-59
2021/08/06 05:33:22;;;;;;;37.90;26.17;;;15.30;99.90;;;;;;3547517;40;20589;-60
2021/08/06 05:35:48;;;;;;;36.03;25.25;;;16.20;99.90;;;;;;3539594;40;20030;-60
2021/08/06 05:38:13;;;;;;;36.90;26.55;;;15.40;99.90;;;;;;3547796;40;20859;-60
2021/08/06 05:40:42;;;;;;;40.83;26.05;;;15.60;99.90;;;;;;3547305;40;20161;-59
2021/08/06 05:43:10;;;;;;;36.90;24.55;;;15.60;99.90;;;;;;3538820;40;20160;-62
2021/08/06 05:45:35;;;;;;;36.22;24.65;;;14.80;99.90;;;;;;3547792;40;20729;-60
2021/08/06 05:48:01;;;;;;;39.67;26.38;;;15.60;99.90;;;;;;3539011;40;20034;-60
2021/08/06 05:50:33;;;;;;;44.65;25.58;;;15.70;99.90;;;;;;3545712;40;20078;-60
2021/08/06 05:52:59;;;;;;;35.85;23.88;;;;;;;;;;3540642;40;20740;-60
2021/08/06 05:55:24;;;;;;;40.88;26.38;;;15.70;99.90;;;;;;3539841;40;20031;-60
2021/08/06 05:57:58;;;;;;;39.20;26.67;;;15.80;99.90;;;;;;3547606;40;20455;-60
2021/08/06 06:00:24;;;;;;;41.70;26.73;;;15.90;99.90;;;;;;3546753;40;20031;-60
2021/08/06 06:02:57;;;;;;;43.30;26.67;;;15.90;99.90;;;;;;3533722;40;20031;-60
2021/08/06 06:05:43;;;;;;;;;;;16.00;99.90;;;;;;3541096;40;20430;-60
2021/08/06 06:08:08;;;;;;;35.63;24.85;;;16.10;99.90;;;;;;3539555;40;19948;-68
2021/08/06 06:10:34;;;;;;;51.10;33.45;;;16.40;99.90;;;;;;3540263;40;20066;-67
2021/08/06 06:13:00;;;;;;;42.22;28.35;;;16.40;99.90;;;;;;3546982;40;20042;-67
2021/08/06 06:15:26;;;;;;;36.22;27.35;;;16.50;99.90;;;;;;3546717;40;20112;-67
2021/08/06 06:17:53;;;;;;;37.45;25.95;;;16.60;99.90;;;;;;3535266;40;20118;-66
2021/08/06 06:20:19;;;;;;;37.40;26.38;;;16.80;99.90;;;;;;3546735;40;20038;-67
2021/08/06 06:22:45;;;;;;;35.42;24.88;;;16.80;99.90;;;;;;3546704;40;20034;-67
2021/08/06 06:25:10;;;;;;;30.67;22.88;;;16.90;99.90;;;;;;3546581;40;20053;-68
2021/08/06 06:27:36;;;;;;;31.38;20.58;;;16.90;99.90;;;;;;3539848;40;20372;-68
2021/08/06 06:30:02;;;;;;;31.85;21.20;;;17.00;99.90;;;;;;3546524;40;20038;-67
2021/08/06 06:32:29;;;;;;;27.63;20.40;;;17.00;99.90;;;;;;3546862;40;20049;-69
2021/08/06 06:34:55;;;;;;;26.52;18.25;;;;;;;;;;3546735;40;20058;-64
2021/08/06 06:37:24;;;;;;;22.42;17.35;;;17.00;99.90;;;;;;3536493;40;20109;-64
2021/08/06 06:39:53;;;;;;;24.13;17.67;;;17.20;99.90;;;;;;3548014;40;20129;-64
2021/08/06 06:42:19;;;;;;;26.88;18.42;;;;;;;;;;3549180;40;20026;-64
2021/08/06 06:44:47;;;;;;;17.63;15.50;;;16.60;99.90;;;;;;3541416;40;20042;-65
2021/08/06 06:47:12;;;;;;;22.73;16.10;;;17.30;99.90;;;;;;3549554;40;20808;-66
2021/08/06 06:49:38;;;;;;;18.67;14.85;;;17.50;99.90;;;;;;3549063;40;20042;-66
2021/08/06 06:52:04;;;;;;;20.08;13.65;;;;;;;;;;3537813;40;20031;-67
2021/08/06 06:54:29;;;;;;;14.32;12.07;;;17.70;99.90;;;;;;3548030;40;20409;-67
2021/08/06 06:56:55;;;;;;;20.27;15.18;;;17.70;99.90;;;;;;3549094;40;20037;-67
2021/08/06 06:59:20;;;;;;;24.02;14.23;;;17.80;99.90;;;;;;3549367;40;20047;-62
2021/08/06 07:01:47;;;;;;;24.83;15.63;;;;;;;;;;3549119;40;20034;-60
2021/08/06 07:04:13;;;;;;;19.30;10.43;;;;;;;;;;3549810;40;20034;-68
2021/08/06 07:06:39;;;;;;;20.10;14.50;;;;;;;;;;3548850;40;20121;-68
2021/08/06 07:09:06;;;;;;;12.98;9.38;;;;;;;;;;3548882;40;20030;-68
2021/08/06 07:11:31;;;;;;;13.43;11.45;;;18.20;99.90;;;;;;3531977;40;20034;-68
2021/08/06 07:13:58;;;;;;;17.05;11.10;;;;;;;;;;3549786;40;20303;-68
2021/08/06 07:16:23;;;;;;;14.20;11.32;;;18.30;99.90;;;;;;3549487;40;20078;-70
2021/08/06 07:18:50;;;;;;;18.38;13.60;;;18.40;99.90;;;;;;3536055;40;20039;-70
2021/08/06 07:21:16;;;;;;;11.90;9.48;;;18.50;99.90;;;;;;3548775;40;20065;-70
2021/08/06 07:23:42;;;;;;;15.93;9.60;;;18.50;99.90;;;;;;3540871;40;20296;-70
2021/08/06 07:26:08;;;;;;;12.88;8.18;;;18.50;99.90;;;;;;3540973;40;20035;-70
2021/08/06 07:28:36;;;;;;;12.52;8.23;;;;;;;;;;3539295;40;20049;-71
2021/08/06 07:31:02;;;;;;;11.38;6.45;;;18.70;99.90;;;;;;3538754;40;20023;-70
2021/08/06 07:33:28;;;;;;;14.32;6.25;;;18.70;99.90;;;;;;3548886;40;20144;-71
2021/08/06 07:35:54;;;;;;;9.13;6.35;;;18.70;99.90;;;;;;3548723;40;20711;-68
2021/08/06 07:38:20;;;;;;;9.27;6.78;;;18.60;99.90;;;;;;3540866;40;20031;-69
2021/08/06 07:40:45;;;;;;;8.02;6.72;;;18.40;99.90;;;;;;3542043;40;20031;-68
2021/08/06 07:43:11;;;;;;;9.52;6.57;;;18.50;99.90;;;;;;3541714;40;20054;-69
2021/08/06 07:45:37;;;;;;;8.70;6.68;;;18.50;99.90;;;;;;3540865;40;20431;-71
2021/08/06 07:48:03;;;;;;;8.32;6.63;;;18.60;99.90;;;;;;3535494;40;20657;-69
2021/08/06 07:50:29;;;;;;;10.02;6.35;;;18.50;99.90;;;;;;3540686;40;20027;-68
2021/08/06 07:52:55;;;;;;;14.10;10.35;;;18.60;99.90;;;;;;3540808;40;20039;-68
2021/08/06 07:55:24;;;;;;;12.00;8.57;;;;;;;;;;3549092;40;20026;-68
2021/08/06 07:57:50;;;;;;;8.95;6.30;;;18.90;99.90;;;;;;3549493;40;20059;-68
2021/08/06 08:00:19;;;;;;;12.18;8.07;;;19.10;99.90;;;;;;3538279;40;20022;-67
2021/08/06 08:02:47;;;;;;;8.48;6.32;;;19.30;99.90;;;;;;3548675;40;20041;-67
2021/08/06 08:05:28;;;;;;;6.75;5.50;;;19.50;99.90;;;;;;3547999;40;20038;-66
2021/08/06 08:07:59;;;;;;;10.02;5.30;;;19.70;99.90;;;;;;3546551;40;20055;-67
2021/08/06 08:10:29;;;;;;;6.45;5.35;;;19.90;99.90;;;;;;3547507;40;20026;-66
2021/08/06 08:12:55;;;;;;;13.00;8.85;;;;;;;;;;3546682;40;20390;-67
2021/08/06 08:15:21;;;;;;;12.43;7.30;;;;;;;;;;3547936;40;20033;-66
2021/08/06 08:17:47;;;;;;;6.50;5.07;;;20.20;99.90;;;;;;3548023;40;20030;-66
2021/08/06 08:20:12;;;;;;;5.88;4.60;;;20.30;99.90;;;;;;3547821;40;20059;-67
2021/08/06 08:22:38;;;;;;;6.00;4.60;;;20.70;99.90;;;;;;3547423;40;20054;-67
2021/08/06 08:25:03;;;;;;;4.65;3.88;;;20.60;99.90;;;;;;3538454;40;20654;-66
2021/08/06 08:27:29;;;;;;;8.68;5.05;;;;;;;;;;3539621;40;20061;-66
2021/08/06 08:29:58;;;;;;;9.52;4.50;;;20.80;99.90;;;;;;3547778;40;20034;-66
2021/08/06 08:32:23;;;;;;;7.97;4.22;;;20.80;99.90;;;;;;3547868;40;20034;-69
2021/08/06 08:34:49;;;;;;;4.97;4.28;;;21.10;99.90;;;;;;3547916;40;20062;-66
2021/08/06 08:37:15;;;;;;;12.82;6.75;;;21.20;99.90;;;;;;3539277;40;20799;-67
2021/08/06 08:39:42;;;;;;;29.67;18.35;;;21.10;99.90;;;;;;3538790;40;20050;-68
2021/08/06 08:42:07;;;;;;;10.23;6.07;;;21.50;99.90;;;;;;3547095;40;20136;-68
2021/08/06 08:44:33;;;;;;;8.00;5.45;;;21.50;99.90;;;;;;3541001;40;20051;-68
2021/08/06 08:46:59;;;;;;;6.38;4.18;;;21.70;99.90;;;;;;3548007;40;20038;-67
2021/08/06 08:49:24;;;;;;;8.13;5.35;;;22.10;99.90;;;;;;3539369;40;20046;-67
2021/08/06 08:51:50;;;;;;;20.88;11.68;;;22.20;99.90;;;;;;3539485;40;20098;-67
2021/08/06 08:54:15;;;;;;;12.13;6.75;;;22.30;99.90;;;;;;3548084;40;20038;-67
2021/08/06 08:56:41;;;;;;;6.40;4.72;;;22.10;99.90;;;;;;3539428;40;20493;-67
2021/08/06 08:59:07;;;;;;;9.07;4.90;;;21.90;99.90;;;;;;3548068;40;20090;-67
2021/08/06 09:01:35;;;;;;;6.63;4.47;;;21.20;99.90;;;;;;3538790;40;20035;-67
2021/08/06 09:04:01;;;;;;;5.72;4.40;;;;;;;;;;3534653;40;20034;-67
2021/08/06 09:06:34;;;;;;;5.82;4.40;;;;;;;;;;3539115;40;20030;-61
2021/08/06 09:09:00;;;;;;;5.85;4.22;;;;;;;;;;3541560;40;20063;-61
2021/08/06 09:11:49;;;;;;;15.20;6.80;;;;;;;;;;3541329;40;20172;-63
2021/08/06 09:14:31;;;;;;;9.68;4.25;;;;;;;;;;3539443;40;20740;-60
2021/08/06 09:16:57;;;;;;;11.52;4.75;;;;;;;;;;3539957;40;20131;-60
2021/08/06 09:19:24;;;;;;;9.95;4.47;;;;;;;;;;3542032;40;20035;-62
2021/08/06 09:21:49;;;;;;;9.57;4.22;;;22.60;99.90;;;;;;3540851;40;20035;-62
2021/08/06 09:24:15;;;;;;;4.40;3.70;;;;;;;;;;3540536;40;20034;-62
2021/08/06 09:26:41;;;;;;;15.07;9.82;;;23.10;99.90;;;;;;3538618;40;20034;-62
2021/08/06 09:29:07;;;;;;;14.85;4.30;;;;;;;;;;3540182;40;20042;-62
2021/08/06 09:31:33;;;;;;;32.28;19.55;;;23.70;99.90;;;;;;3539997;40;20907;-62
2021/08/06 09:33:58;;;;;;;14.82;9.15;;;23.70;99.90;;;;;;3540566;40;20050;-62
2021/08/06 09:36:24;;;;;;;6.32;3.80;;;;;;;;;;3540264;40;20029;-62
2021/08/06 09:38:50;;;;;;;14.02;4.03;;;;;;;;;;3539816;40;20083;-62
2021/08/06 09:41:16;;;;;;;4.20;3.47;;;;;;;;;;3539532;40;20027;-62
2021/08/06 09:43:42;;;;;;;5.60;3.40;;;;;;;;;;3540656;40;20050;-62
2021/08/06 09:46:08;;;;;;;7.28;2.47;;;;;;;;;;3541340;40;20035;-62
2021/08/06 09:48:34;;;;;;;4.45;2.80;;;;;;;;;;3541466;40;20467;-62
2021/08/06 09:51:00;;;;;;;3.80;2.60;;;;;;;;;;3540505;40;20034;-63
2021/08/06 09:53:30;;;;;;;3.55;2.90;;;;;;;;;;3540124;40;20030;-63
2021/08/06 09:55:59;;;;;;;3.78;3.08;;;;;;;;;;3540114;40;20027;-63
2021/08/06 09:58:25;;;;;;;4.65;3.20;;;;;;;;;;3541302;40;20019;-62
2021/08/06 10:00:51;;;;;;;5.93;2.53;;;;;;;;;;3541360;40;20018;-68
2021/08/06 10:03:17;;;;;;;8.05;5.00;;;;;;;;;;3540872;40;20038;-68
2021/08/06 10:05:43;;;;;;;4.80;2.30;;;;;;;;;;3541246;40;20034;-68
2021/08/06 10:08:09;;;;;;;5.97;3.45;;;;;;;;;;3541030;40;20368;-68
2021/08/06 10:10:35;;;;;;;14.70;8.70;;;;;;;;;;3540889;40;20689;-68
2021/08/06 10:13:05;;;;;;;7.82;3.35;;;;;;;;;;3540756;40;20030;-67
2021/08/06 10:15:32;;;;;;;5.53;3.33;;;;;;;;;;3538303;40;20672;-68
2021/08/06 10:17:58;;;;;;;4.22;2.20;;;;;;;;;;3541209;40;20023;-68
2021/08/06 10:20:24;;;;;;;3.78;3.20;;;;;;;;;;3540354;40;20043;-68
2021/08/06 10:22:50;;;;;;;3.63;2.75;;;;;;;;;;3540334;40;20453;-67
2021/08/06 10:25:16;;;;;;;3.38;2.85;;;;;;;;;;3539677;40;20318;-67
2021/08/06 10:27:42;;;;;;;4.95;2.20;;;;;;;;;;3540395;40;20333;-68
2021/08/06 10:30:08;;;;;;;2.60;2.10;;;;;;;;;;3540953;40;20116;-68
2021/08/06 10:32:34;;;;;;;8.70;5.43;;;;;;;;;;3540433;40;20042;-67
2021/08/06 10:35:00;;;;;;;13.20;8.15;;;;;;;;;;3541485;40;20120;-68
2021/08/06 10:37:26;;;;;;;13.70;8.82;;;;;;;;;;3540661;40;20114;-67
2021/08/06 10:39:52;;;;;;;12.80;5.90;;;;;;;;;;3540820;40;20038;-67
2021/08/06 10:42:19;;;;;;;3.67;2.63;;;;;;;;;;3540476;40;20137;-66
2021/08/06 10:44:45;;;;;;;3.17;2.30;;;;;;;;;;3540400;40;20026;-67
2021/08/06 10:47:12;;;;;;;4.35;1.77;;;;;;;;;;3540282;40;20088;-67
2021/08/06 10:49:38;;;;;;;2.67;1.63;;;;;;;;;;3539585;40;20027;-67
2021/08/06 10:52:04;;;;;;;3.15;1.80;;;;;;;;;;3540588;40;20317;-68
2021/08/06 10:54:30;;;;;;;1.77;1.40;;;;;;;;;;3540589;40;20430;-68
2021/08/06 10:56:56;;;;;;;3.28;1.50;;;;;;;;;;3539912;40;20076;-68
2021/08/06 10:59:23;;;;;;;3.30;1.77;;;;;;;;;;3540267;40;20040;-68
2021/08/06 11:01:49;;;;;;;1.92;1.60;;;;;;;;;;3539878;40;20054;-67
2021/08/06 11:04:19;;;;;;;4.65;1.60;;;;;;;;;;3540162;40;20082;-68
2021/08/06 11:06:46;;;;;;;2.00;1.73;;;;;;;;;;3540393;40;20042;-68
2021/08/06 11:09:12;;;;;;;2.85;1.90;;;;;;;;;;3538591;40;20053;-67
2021/08/06 11:11:38;;;;;;;2.97;1.50;;;;;;;;;;3538804;40;20034;-67
2021/08/06 11:14:04;;;;;;;7.13;1.63;;;;;;;;;;3540209;40;20521;-68
2021/08/06 11:16:29;;;;;;;1.48;1.25;;;;;;;;;;3540208;40;20093;-68
2021/08/06 11:18:55;;;;;;;4.03;1.75;;;;;;;;;;3540050;40;20101;-67
2021/08/06 11:21:22;;;;;;;1.40;1.30;;;;;;;;;;3539534;40;20038;-68
2021/08/06 11:23:48;;;;;;;4.78;1.30;;;;;;;;;;3541864;40;20030;-67
2021/08/06 11:26:14;;;;;;;2.85;1.23;;;;;;;;;;3541458;40;20035;-67
2021/08/06 11:28:40;;;;;;;1.60;1.50;;;;;;;;;;3541906;40;20042;-67
2021/08/06 11:31:06;;;;;;;2.90;1.40;;;;;;;;;;3541716;40;20807;-68
2021/08/06 11:33:32;;;;;;;3.08;1.25;;;;;;;;;;3540228;40;20046;-68
2021/08/06 11:35:58;;;;;;;1.30;1.20;;;;;;;;;;3541388;40;20074;-68
2021/08/06 11:38:25;;;;;;;3.95;1.40;;;;;;;;;;3541295;40;20031;-68
2021/08/06 11:40:51;;;;;;;2.35;1.50;;;;;;;;;;3541410;40;20039;-68
2021/08/06 11:43:18;;;;;;;2.03;1.60;;;;;;;;;;3541168;40;20119;-68
2021/08/06 11:45:44;;;;;;;2.30;1.50;;;;;;;;;;3541138;40;20321;-68
2021/08/06 11:48:10;;;;;;;2.03;1.60;;;;;;;;;;3540633;40;20043;-67
2021/08/06 11:50:36;;;;;;;1.45;1.27;;;;;;;;;;3540882;40;20045;-68
2021/08/06 11:53:02;;;;;;;1.90;1.60;;;;;;;;;;3541476;40;20139;-67
2021/08/06 11:55:28;;;;;;;12.52;3.38;;;;;;;;;;3541368;40;20042;-69
2021/08/06 11:57:54;;;;;;;7.32;3.15;;;;;;;;;;3539768;40;20082;-67
2021/08/06 12:00:20;;;;;;;5.43;2.10;;;;;;;;;;3541413;40;20046;-67
2021/08/06 12:02:46;;;;;;;10.35;6.65;;;;;;;;;;3539822;40;20042;-67
2021/08/06 12:05:12;;;;;;;3.28;1.00;;;;;;;;;;3541712;40;20027;-67
2021/08/06 12:07:38;;;;;;;1.10;1.00;;;;;;;;;;3548241;40;20081;-67
2021/08/06 12:10:04;;;;;;;1.85;1.50;;;;;;;;;;3540717;40;20539;-67
2021/08/06 12:12:30;;;;;;;1.75;1.50;;;;;;;;;;3541272;40;20038;-68
2021/08/06 12:14:56;;;;;;;1.30;1.20;;;;;;;;;;3541010;40;20035;-67
2021/08/06 12:17:22;;;;;;;2.42;1.27;;;;;;;;;;3541103;40;20390;-67
2021/08/06 12:19:52;;;;;;;3.67;1.40;;;;;;;;;;3539465;40;20027;-68
2021/08/06 12:22:18;;;;;;;3.47;1.48;;;27.30;79.00;;;;;;3538875;40;20066;-68
2021/08/06 12:24:44;;;;;;;1.75;1.30;;;;;;;;;;3540882;40;20688;-69
2021/08/06 12:27:09;;;;;;;2.85;1.20;;;27.30;79.50;;;;;;3540237;40;20154;-70
2021/08/06 12:29:38;;;;;;;10.65;6.05;;;27.50;80.50;;;;;;3547773;40;20038;-69
2021/08/06 12:32:04;;;;;;;3.67;2.40;;;27.60;82.10;;;;;;3539849;40;20050;-70
2021/08/06 12:34:29;;;;;;;2.25;1.40;;;27.70;81.30;;;;;;3540325;40;20042;-70
2021/08/06 12:36:55;;;;;;;1.73;1.23;;;27.60;76.50;;;;;;3541471;40;20038;-70
2021/08/06 12:39:20;;;;;;;2.35;1.20;;;27.50;79.80;;;;;;3541256;40;20027;-70
2021/08/06 12:41:46;;;;;;;2.97;1.48;;;27.50;76.80;;;;;;3541293;40;20663;-70
2021/08/06 12:44:11;;;;;;;1.15;1.05;;;27.40;79.30;;;;;;3541476;40;20030;-70
2021/08/06 12:46:37;;;;;;;1.88;1.33;;;27.50;77.80;;;;;;3541746;40;20109;-70
2021/08/06 12:49:02;;;;;;;1.20;1.10;;;27.70;75.30;;;;;;3542048;40;20042;-70
2021/08/06 12:51:29;;;;;;;2.13;1.40;;;27.50;75.90;;;;;;3541690;40;20065;-70
2021/08/06 12:53:55;;;;;;;2.88;1.05;;;27.60;81.50;;;;;;3541622;40;20039;-73
2021/08/06 12:56:20;;;;;;;6.47;3.90;;;27.90;74.10;;;;;;3540644;40;20033;-74
2021/08/06 12:58:46;;;;;;;1.70;1.45;;;28.10;75.80;;;;;;3541727;40;20046;-69
2021/08/06 13:01:11;;;;;;;3.95;2.83;;;28.10;75.00;;;;;;3541625;40;20281;-72
2021/08/06 13:03:36;;;;;;;4.18;1.13;;;28.00;75.30;;;;;;3547693;40;20038;-72
2021/08/06 13:06:02;;;;;;;2.72;2.20;;;28.00;74.00;;;;;;3541613;40;20041;-72